sensor_id;sensor_type;location;lat;lon;timestamp;pressure;altitude;pressure_sealevel;temperature;humidity
69306;BME280;56427;51.580;4.656;2023-03-14T00:01:19;98914.41;;;10.36;100.00
69306;BME280;56427;51.580;4.656;2023-03-14T00:03:45;98916.66;;;10.39;100.00
69306;BME280;56427;51.580;4.656;2023-03-14T00:06:12;98908.09;;;10.38;100.00
69306;BME280;56427;51.580;4.656;2023-03-14T00:08:38;98913.00;;;10.33;100.00
69306;BME280;56427;51.580;4.656;2023-03-14T00:11:09;98908.00;;;10.23;100.00
69306;BME280;56427;51.580;4.656;2023-03-14T00:13:34;98911.50;;;10.30;100.00
69306;BME280;56427;51.580;4.656;2023-03-14T00:16:11;98912.38;;;10.23;100.00
69306;BME280;56427;51.580;4.656;2023-03-14T00:18:37;98919.16;;;10.32;100.00
69306;BME280;56427;51.580;4.656;2023-03-14T00:21:03;98914.78;;;10.24;100.00
69306;BME280;56427;51.580;4.656;2023-03-14T00:23:30;98915.78;;;10.23;100.00
69306;BME280;56427;51.580;4.656;2023-03-14T00:26:05;98916.75;;;10.22;100.00
69306;BME280;56427;51.580;4.656;2023-03-14T00:28:31;98918.38;;;10.23;100.00
69306;BME280;56427;51.580;4.656;2023-03-14T00:30:56;98915.00;;;10.14;100.00
69306;BME280;56427;51.580;4.656;2023-03-14T00:33:25;98922.91;;;10.21;100.00
69306;BME280;56427;51.580;4.656;2023-03-14T00:36:04;98919.34;;;10.22;100.00
69306;BME280;56427;51.580;4.656;2023-03-14T00:38:31;98920.50;;;10.20;100.00
69306;BME280;56427;51.580;4.656;2023-03-14T00:40:57;98925.44;;;10.29;100.00
69306;BME280;56427;51.580;4.656;2023-03-14T00:43:23;98927.06;;;10.30;100.00
69306;BME280;56427;51.580;4.656;2023-03-14T00:45:50;98923.22;;;10.26;100.00
69306;BME280;56427;51.580;4.656;2023-03-14T00:48:16;98924.06;;;10.19;100.00
69306;BME280;56427;51.580;4.656;2023-03-14T00:50:42;98924.91;;;10.11;100.00
69306;BME280;56427;51.580;4.656;2023-03-14T00:53:07;98922.94;;;10.13;100.00
69306;BME280;56427;51.580;4.656;2023-03-14T00:55:37;98914.47;;;9.96;100.00
69306;BME280;56427;51.580;4.656;2023-03-14T00:58:02;98931.03;;;9.95;100.00
69306;BME280;56427;51.580;4.656;2023-03-14T01:00:28;98932.03;;;9.86;100.00
69306;BME280;56427;51.580;4.656;2023-03-14T01:02:53;98935.91;;;9.82;100.00
69306;BME280;56427;51.580;4.656;2023-03-14T01:05:18;98940.81;;;9.76;100.00
69306;BME280;56427;51.580;4.656;2023-03-14T01:07:44;98935.78;;;9.75;100.00
69306;BME280;56427;51.580;4.656;2023-03-14T01:10:10;98935.63;;;9.76;100.00
69306;BME280;56427;51.580;4.656;2023-03-14T01:12:35;98936.78;;;9.74;100.00
69306;BME280;56427;51.580;4.656;2023-03-14T01:15:00;98933.38;;;9.73;100.00
69306;BME280;56427;51.580;4.656;2023-03-14T01:17:26;98937.75;;;9.73;100.00
69306;BME280;56427;51.580;4.656;2023-03-14T01:19:54;98926.41;;;9.74;100.00
69306;BME280;56427;51.580;4.656;2023-03-14T01:22:20;98926.56;;;9.81;100.00
69306;BME280;56427;51.580;4.656;2023-03-14T01:24:46;98916.81;;;9.83;100.00
69306;BME280;56427;51.580;4.656;2023-03-14T01:27:12;98917.63;;;9.83;100.00
69306;BME280;56427;51.580;4.656;2023-03-14T01:29:37;98925.72;;;9.80;100.00
69306;BME280;56427;51.580;4.656;2023-03-14T01:32:03;98922.22;;;9.73;100.00
69306;BME280;56427;51.580;4.656;2023-03-14T01:34:28;98918.81;;;9.72;100.00
69306;BME280;56427;51.580;4.656;2023-03-14T01:36:54;98908.75;;;9.77;100.00
69306;BME280;56427;51.580;4.656;2023-03-14T01:39:19;98920.91;;;9.77;100.00
69306;BME280;56427;51.580;4.656;2023-03-14T01:41:45;98917.94;;;9.80;100.00
69306;BME280;56427;51.580;4.656;2023-03-14T01:44:11;98922.50;;;9.78;100.00
69306;BME280;56427;51.580;4.656;2023-03-14T01:46:42;98901.59;;;9.80;100.00
69306;BME280;56427;51.580;4.656;2023-03-14T01:49:24;98891.41;;;9.78;100.00
69306;BME280;56427;51.580;4.656;2023-03-14T01:52:05;98896.59;;;9.78;100.00
69306;BME280;56427;51.580;4.656;2023-03-14T01:54:55;98895.34;;;9.74;100.00
69306;BME280;56427;51.580;4.656;2023-03-14T01:57:28;98896.47;;;9.71;100.00
69306;BME280;56427;51.580;4.656;2023-03-14T01:59:59;98895.34;;;9.74;100.00
69306;BME280;56427;51.580;4.656;2023-03-14T02:02:26;98895.34;;;9.74;100.00
69306;BME280;56427;51.580;4.656;2023-03-14T02:04:54;98890.50;;;9.71;100.00
69306;BME280;56427;51.580;4.656;2023-03-14T02:07:34;98889.38;;;9.65;100.00
69306;BME280;56427;51.580;4.656;2023-03-14T02:10:02;98893.25;;;9.69;100.00
69306;BME280;56427;51.580;4.656;2023-03-14T02:12:29;98877.88;;;9.68;100.00
69306;BME280;56427;51.580;4.656;2023-03-14T02:14:54;98879.47;;;9.77;100.00
69306;BME280;56427;51.580;4.656;2023-03-14T02:17:20;98875.91;;;9.70;100.00
69306;BME280;56427;51.580;4.656;2023-03-14T02:20:06;98872.06;;;9.66;100.00
69306;BME280;56427;51.580;4.656;2023-03-14T02:22:37;98856.56;;;9.57;100.00
69306;BME280;56427;51.580;4.656;2023-03-14T02:25:08;98852.94;;;9.67;100.00
69306;BME280;56427;51.580;4.656;2023-03-14T02:27:35;98859.78;;;9.60;100.00
69306;BME280;56427;51.580;4.656;2023-03-14T02:30:04;98863.19;;;9.60;100.00
69306;BME280;56427;51.580;4.656;2023-03-14T02:32:32;98862.03;;;9.63;100.00
69306;BME280;56427;51.580;4.656;2023-03-14T02:35:03;98862.22;;;9.61;100.00
69306;BME280;56427;51.580;4.656;2023-03-14T02:37:36;98863.34;;;9.58;100.00
69306;BME280;56427;51.580;4.656;2023-03-14T02:40:02;98864.81;;;9.61;100.00
69306;BME280;56427;51.580;4.656;2023-03-14T02:42:29;98862.03;;;9.63;100.00
69306;BME280;56427;51.580;4.656;2023-03-14T02:47:44;98861.91;;;9.56;100.00
69306;BME280;56427;51.580;4.656;2023-03-14T02:50:25;98853.97;;;9.57;100.00
69306;BME280;56427;51.580;4.656;2023-03-14T02:52:52;98850.09;;;9.53;100.00
69306;BME280;56427;51.580;4.656;2023-03-14T02:55:21;98853.31;;;9.55;100.00
69306;BME280;56427;51.580;4.656;2023-03-14T02:57:47;98854.31;;;9.54;100.00
69306;BME280;56427;51.580;4.656;2023-03-14T03:00:12;98850.28;;;9.52;100.00
69306;BME280;56427;51.580;4.656;2023-03-14T03:02:38;98852.41;;;9.48;100.00
69306;BME280;56427;51.580;4.656;2023-03-14T03:05:04;98848.34;;;9.54;100.00
69306;BME280;56427;51.580;4.656;2023-03-14T03:07:29;98853.34;;;9.47;100.00
69306;BME280;56427;51.580;4.656;2023-03-14T03:09:55;98848.53;;;9.44;100.00
69306;BME280;56427;51.580;4.656;2023-03-14T03:12:20;98846.91;;;9.43;100.00
69306;BME280;56427;51.580;4.656;2023-03-14T03:14:45;98849.69;;;9.42;100.00
69306;BME280;56427;51.580;4.656;2023-03-14T03:17:11;98849.03;;;9.39;100.00
69306;BME280;56427;51.580;4.656;2023-03-14T03:19:36;98850.19;;;9.37;100.00
69306;BME280;56427;51.580;4.656;2023-03-14T03:22:01;98848.72;;;9.43;100.00
69306;BME280;56427;51.580;4.656;2023-03-14T03:24:27;98849.19;;;9.46;100.00
69306;BME280;56427;51.580;4.656;2023-03-14T03:26:52;98844.31;;;9.43;100.00
69306;BME280;56427;51.580;4.656;2023-03-14T03:29:18;98846.72;;;9.53;100.00
69306;BME280;56427;51.580;4.656;2023-03-14T03:31:43;98834.13;;;9.42;100.00
69306;BME280;56427;51.580;4.656;2023-03-14T03:34:11;98831.88;;;9.38;100.00
69306;BME280;56427;51.580;4.656;2023-03-14T03:36:36;98833.47;;;9.48;100.00
69306;BME280;56427;51.580;4.656;2023-03-14T03:39:01;98835.59;;;9.44;100.00
69306;BME280;56427;51.580;4.656;2023-03-14T03:41:27;98837.03;;;9.47;100.00
69306;BME280;56427;51.580;4.656;2023-03-14T03:43:52;98838.97;;;9.45;100.00
69306;BME280;56427;51.580;4.656;2023-03-14T03:46:19;98842.53;;;9.44;100.00
69306;BME280;56427;51.580;4.656;2023-03-14T03:48:44;98840.59;;;9.46;100.00
69306;BME280;56427;51.580;4.656;2023-03-14T03:51:14;98838.34;;;9.43;100.00
69306;BME280;56427;51.580;4.656;2023-03-14T03:53:40;98832.50;;;9.40;100.00
69306;BME280;56427;51.580;4.656;2023-03-14T03:56:06;98841.88;;;9.50;100.00
69306;BME280;56427;51.580;4.656;2023-03-14T03:58:31;98842.53;;;9.44;100.00
69306;BME280;56427;51.580;4.656;2023-03-14T04:00:57;98841.28;;;9.39;100.00
69306;BME280;56427;51.580;4.656;2023-03-14T04:03:22;98845.47;;;9.40;100.00
69306;BME280;56427;51.580;4.656;2023-03-14T04:06:04;98847.25;;;9.40;100.00
69306;BME280;56427;51.580;4.656;2023-03-14T04:08:30;98840.31;;;9.32;100.00
69306;BME280;56427;51.580;4.656;2023-03-14T04:10:57;98840.00;;;9.35;100.00
69306;BME280;56427;51.580;4.656;2023-03-14T04:13:23;98838.84;;;9.38;100.00
69306;BME280;56427;51.580;4.656;2023-03-14T04:15:49;98840.00;;;9.35;100.00
69306;BME280;56427;51.580;4.656;2023-03-14T04:18:14;98837.72;;;9.32;100.00
69306;BME280;56427;51.580;4.656;2023-03-14T04:20:40;98837.56;;;9.34;100.00
69306;BME280;56427;51.580;4.656;2023-03-14T04:23:05;98835.31;;;9.31;100.00
69306;BME280;56427;51.580;4.656;2023-03-14T04:25:30;98830.50;;;9.28;100.00
69306;BME280;56427;51.580;4.656;2023-03-14T04:27:56;98845.03;;;9.29;100.00
69306;BME280;56427;51.580;4.656;2023-03-14T04:30:21;98838.44;;;9.26;100.00
69306;BME280;56427;51.580;4.656;2023-03-14T04:32:47;98843.09;;;9.23;100.00
69306;BME280;56427;51.580;4.656;2023-03-14T04:35:12;98845.53;;;9.24;100.00
69306;BME280;56427;51.580;4.656;2023-03-14T04:37:37;98841.34;;;9.23;100.00
69306;BME280;56427;51.580;4.656;2023-03-14T04:40:03;98842.44;;;9.29;100.00
69306;BME280;56427;51.580;4.656;2023-03-14T04:42:31;98835.66;;;9.28;100.00
69306;BME280;56427;51.580;4.656;2023-03-14T04:44:56;98847.00;;;9.27;100.00
69306;BME280;56427;51.580;4.656;2023-03-14T04:47:22;98842.78;;;9.26;100.00
69306;BME280;56427;51.580;4.656;2023-03-14T04:49:47;98836.34;;;9.21;100.00
69306;BME280;56427;51.580;4.656;2023-03-14T04:52:12;98833.88;;;9.28;100.00
69306;BME280;56427;51.580;4.656;2023-03-14T04:54:38;98833.75;;;9.21;100.00
69306;BME280;56427;51.580;4.656;2023-03-14T04:57:03;98827.94;;;9.19;100.00
69306;BME280;56427;51.580;4.656;2023-03-14T04:59:28;98823.44;;;9.13;100.00
69306;BME280;56427;51.580;4.656;2023-03-14T05:01:54;98828.09;;;9.18;100.00
69306;BME280;56427;51.580;4.656;2023-03-14T05:04:19;98816.94;;;9.17;100.00
69306;BME280;56427;51.580;4.656;2023-03-14T05:06:44;98820.19;;;9.19;100.00
69306;BME280;56427;51.580;4.656;2023-03-14T05:09:10;98817.09;;;9.16;100.00
69306;BME280;56427;51.580;4.656;2023-03-14T05:11:35;98819.34;;;9.19;100.00
69306;BME280;56427;51.580;4.656;2023-03-14T05:14:00;98806.75;;;9.16;100.00
69306;BME280;56427;51.580;4.656;2023-03-14T05:16:26;98802.88;;;9.12;100.00
69306;BME280;56427;51.580;4.656;2023-03-14T05:18:51;98805.78;;;9.17;100.00
69306;BME280;56427;51.580;4.656;2023-03-14T05:21:17;98807.72;;;9.15;100.00
69306;BME280;56427;51.580;4.656;2023-03-14T05:23:42;98810.94;;;9.17;100.00
69306;BME280;56427;51.580;4.656;2023-03-14T05:26:07;98814.34;;;9.17;100.00
69306;BME280;56427;51.580;4.656;2023-03-14T05:28:33;98813.22;;;9.20;100.00
69306;BME280;56427;51.580;4.656;2023-03-14T05:30:58;98816.75;;;9.19;100.00
69306;BME280;56427;51.580;4.656;2023-03-14T05:33:23;98808.81;;;9.20;100.00
69306;BME280;56427;51.580;4.656;2023-03-14T05:35:49;98812.56;;;9.18;100.00
69306;BME280;56427;51.580;4.656;2023-03-14T05:38:14;98815.34;;;9.16;100.00
69306;BME280;56427;51.580;4.656;2023-03-14T05:40:40;98820.34;;;9.18;100.00
69306;BME280;56427;51.580;4.656;2023-03-14T05:43:05;98818.41;;;9.12;100.00
69306;BME280;56427;51.580;4.656;2023-03-14T05:45:33;98816.16;;;9.09;100.00
69306;BME280;56427;51.580;4.656;2023-03-14T05:47:58;98824.41;;;9.04;100.00
69306;BME280;56427;51.580;4.656;2023-03-14T05:50:24;98815.88;;;8.95;100.00
69306;BME280;56427;51.580;4.656;2023-03-14T05:52:49;98824.44;;;8.96;100.00
69306;BME280;56427;51.580;4.656;2023-03-14T05:55:15;98823.31;;;8.98;100.00
69306;BME280;56427;51.580;4.656;2023-03-14T05:57:40;98814.59;;;8.91;100.00
69306;BME280;56427;51.580;4.656;2023-03-14T06:00:06;98814.28;;;8.86;100.00
69306;BME280;56427;51.580;4.656;2023-03-14T06:02:31;98822.38;;;8.83;100.00
69306;BME280;56427;51.580;4.656;2023-03-14T06:04:57;98816.41;;;8.82;100.00
69306;BME280;56427;51.580;4.656;2023-03-14T06:07:22;98813.00;;;8.82;100.00
69306;BME280;56427;51.580;4.656;2023-03-14T06:09:47;98820.78;;;8.82;100.00
69306;BME280;56427;51.580;4.656;2023-03-14T06:12:13;98824.78;;;8.84;100.00
69306;BME280;56427;51.580;4.656;2023-03-14T06:14:38;98820.94;;;8.80;100.00
69306;BME280;56427;51.580;4.656;2023-03-14T06:17:03;98823.84;;;8.77;100.00
69306;BME280;56427;51.580;4.656;2023-03-14T06:19:29;98821.09;;;8.79;100.00
69306;BME280;56427;51.580;4.656;2023-03-14T06:21:54;98821.25;;;8.77;100.00
69306;BME280;56427;51.580;4.656;2023-03-14T06:24:19;98835.31;;;8.75;100.00
69306;BME280;56427;51.580;4.656;2023-03-14T06:26:45;98895.66;;;8.67;100.00
69306;BME280;56427;51.580;4.656;2023-03-14T06:29:10;98918.31;;;7.89;100.00
69306;BME280;56427;51.580;4.656;2023-03-14T06:31:36;98923.44;;;7.39;100.00
69306;BME280;56427;51.580;4.656;2023-03-14T06:34:01;98937.06;;;7.23;100.00
69306;BME280;56427;51.580;4.656;2023-03-14T06:36:26;98944.72;;;6.88;100.00
69306;BME280;56427;51.580;4.656;2023-03-14T06:38:52;98950.44;;;7.00;100.00
69306;BME280;56427;51.580;4.656;2023-03-14T06:41:17;98964.66;;;6.78;100.00
69306;BME280;56427;51.580;4.656;2023-03-14T06:43:43;98956.63;;;6.81;100.00
69306;BME280;56427;51.580;4.656;2023-03-14T06:46:08;98977.69;;;6.76;100.00
69306;BME280;56427;51.580;4.656;2023-03-14T06:48:34;99001.91;;;6.66;100.00
69306;BME280;56427;51.580;4.656;2023-03-14T06:50:59;99001.69;;;6.59;100.00
69306;BME280;56427;51.580;4.656;2023-03-14T06:53:24;99016.50;;;6.57;100.00
69306;BME280;56427;51.580;4.656;2023-03-14T06:55:50;99026.53;;;6.60;100.00
69306;BME280;56427;51.580;4.656;2023-03-14T06:58:15;99023.50;;;6.47;100.00
69306;BME280;56427;51.580;4.656;2023-03-14T07:00:41;99037.47;;;6.44;100.00
69306;BME280;56427;51.580;4.656;2023-03-14T07:03:07;99034.81;;;6.36;100.00
69306;BME280;56427;51.580;4.656;2023-03-14T07:05:32;99059.44;;;6.48;100.00
69306;BME280;56427;51.580;4.656;2023-03-14T07:07:58;99064.25;;;6.33;100.00
69306;BME280;56427;51.580;4.656;2023-03-14T07:10:23;99075.94;;;6.28;100.00
69306;BME280;56427;51.580;4.656;2023-03-14T07:12:48;99087.25;;;6.17;100.00
69306;BME280;56427;51.580;4.656;2023-03-14T07:15:16;99098.84;;;6.31;100.00
69306;BME280;56427;51.580;4.656;2023-03-14T07:17:42;99106.59;;;6.21;100.00
69306;BME280;56427;51.580;4.656;2023-03-14T07:20:08;99127.34;;;6.19;100.00
69306;BME280;56427;51.580;4.656;2023-03-14T07:22:34;99139.81;;;6.24;100.00
69306;BME280;56427;51.580;4.656;2023-03-14T07:24:59;99134.69;;;6.14;100.00
69306;BME280;56427;51.580;4.656;2023-03-14T07:27:24;99137.28;;;6.14;100.00
69306;BME280;56427;51.580;4.656;2023-03-14T07:29:50;99155.31;;;6.14;100.00
69306;BME280;56427;51.580;4.656;2023-03-14T07:32:15;99160.59;;;6.13;100.00
69306;BME280;56427;51.580;4.656;2023-03-14T07:34:41;99160.69;;;6.21;100.00
69306;BME280;56427;51.580;4.656;2023-03-14T07:37:07;99175.09;;;6.23;100.00
69306;BME280;56427;51.580;4.656;2023-03-14T07:39:32;99181.84;;;6.24;100.00
69306;BME280;56427;51.580;4.656;2023-03-14T07:41:58;99188.94;;;6.03;100.00
69306;BME280;56427;51.580;4.656;2023-03-14T07:44:23;99202.88;;;6.10;100.00
69306;BME280;56427;51.580;4.656;2023-03-14T07:46:49;99199.78;;;5.97;100.00
69306;BME280;56427;51.580;4.656;2023-03-14T07:49:14;99219.72;;;6.04;100.00
69306;BME280;56427;51.580;4.656;2023-03-14T07:51:40;99224.75;;;5.96;100.00
69306;BME280;56427;51.580;4.656;2023-03-14T07:54:05;99241.25;;;6.03;100.00
69306;BME280;56427;51.580;4.656;2023-03-14T07:56:31;99240.72;;;6.00;100.00
69306;BME280;56427;51.580;4.656;2023-03-14T07:58:57;99240.44;;;5.93;100.00
69306;BME280;56427;51.580;4.656;2023-03-14T08:01:22;99247.91;;;5.96;100.00
69306;BME280;56427;51.580;4.656;2023-03-14T08:03:48;99258.63;;;6.01;100.00
69306;BME280;56427;51.580;4.656;2023-03-14T08:06:13;99265.66;;;5.99;100.00
69306;BME280;56427;51.580;4.656;2023-03-14T08:08:38;99276.09;;;6.07;100.00
69306;BME280;56427;51.580;4.656;2023-03-14T08:11:06;99287.06;;;6.10;100.00
69306;BME280;56427;51.580;4.656;2023-03-14T08:13:34;99301.06;;;6.07;100.00
69306;BME280;56427;51.580;4.656;2023-03-14T08:15:59;99303.47;;;6.18;100.00
69306;BME280;56427;51.580;4.656;2023-03-14T08:18:25;99310.91;;;6.31;100.00
69306;BME280;56427;51.580;4.656;2023-03-14T08:20:50;99321.34;;;6.20;100.00
69306;BME280;56427;51.580;4.656;2023-03-14T08:23:16;99324.06;;;6.38;100.00
69306;BME280;56427;51.580;4.656;2023-03-14T08:25:41;99335.59;;;6.34;100.00
69306;BME280;56427;51.580;4.656;2023-03-14T08:28:06;99339.66;;;6.36;100.00
69306;BME280;56427;51.580;4.656;2023-03-14T08:30:32;99338.84;;;6.45;100.00
69306;BME280;56427;51.580;4.656;2023-03-14T08:32:57;99349.38;;;6.72;100.00
69306;BME280;56427;51.580;4.656;2023-03-14T08:35:24;99361.91;;;7.04;100.00
69306;BME280;56427;51.580;4.656;2023-03-14T08:37:50;99366.88;;;6.78;100.00
69306;BME280;56427;51.580;4.656;2023-03-14T08:40:17;99377.53;;;7.03;100.00
69306;BME280;56427;51.580;4.656;2023-03-14T08:42:42;99384.44;;;7.02;100.00
69306;BME280;56427;51.580;4.656;2023-03-14T08:45:11;99389.91;;;6.99;100.00
69306;BME280;56427;51.580;4.656;2023-03-14T08:47:37;99409.81;;;7.07;100.00
69306;BME280;56427;51.580;4.656;2023-03-14T08:50:04;99409.63;;;7.65;100.00
69306;BME280;56427;51.580;4.656;2023-03-14T08:52:30;99427.03;;;7.63;100.00
69306;BME280;56427;51.580;4.656;2023-03-14T08:54:56;99436.97;;;7.21;100.00
69306;BME280;56427;51.580;4.656;2023-03-14T08:57:21;99448.09;;;7.11;100.00
69306;BME280;56427;51.580;4.656;2023-03-14T08:59:47;99454.56;;;6.78;100.00
69306;BME280;56427;51.580;4.656;2023-03-14T09:02:12;99476.38;;;6.93;100.00
69306;BME280;56427;51.580;4.656;2023-03-14T09:04:38;99481.00;;;6.80;100.00
69306;BME280;56427;51.580;4.656;2023-03-14T09:07:04;99498.66;;;6.65;100.00
69306;BME280;56427;51.580;4.656;2023-03-14T09:09:29;99513.16;;;6.47;100.00
69306;BME280;56427;51.580;4.656;2023-03-14T09:11:56;99522.59;;;6.36;100.00
69306;BME280;56427;51.580;4.656;2023-03-14T09:14:21;99546.66;;;6.47;100.00
69306;BME280;56427;51.580;4.656;2023-03-14T09:16:47;99554.00;;;6.71;100.00
69306;BME280;56427;51.580;4.656;2023-03-14T09:19:12;99551.69;;;6.77;100.00
69306;BME280;56427;51.580;4.656;2023-03-14T09:21:37;99562.44;;;7.02;100.00
69306;BME280;56427;51.580;4.656;2023-03-14T09:24:06;99582.53;;;6.98;100.00
69306;BME280;56427;51.580;4.656;2023-03-14T09:26:31;99580.22;;;6.86;100.00
69306;BME280;56427;51.580;4.656;2023-03-14T09:28:57;99596.41;;;6.97;100.00
69306;BME280;56427;51.580;4.656;2023-03-14T09:31:22;99598.25;;;6.76;100.00
69306;BME280;56427;51.580;4.656;2023-03-14T09:33:47;99610.41;;;6.54;100.00
69306;BME280;56427;51.580;4.656;2023-03-14T09:36:13;99622.94;;;6.28;100.00
69306;BME280;56427;51.580;4.656;2023-03-14T09:38:38;99636.13;;;5.83;100.00
69306;BME280;56427;51.580;4.656;2023-03-14T09:41:13;99649.88;;;5.72;100.00
69306;BME280;56427;51.580;4.656;2023-03-14T09:43:41;99657.09;;;5.78;100.00
69306;BME280;56427;51.580;4.656;2023-03-14T09:46:09;99679.47;;;5.78;100.00
69306;BME280;56427;51.580;4.656;2023-03-14T09:48:36;99688.59;;;6.03;100.00
69306;BME280;56427;51.580;4.656;2023-03-14T09:51:05;99698.81;;;6.14;100.00
69306;BME280;56427;51.580;4.656;2023-03-14T09:53:43;99700.25;;;6.28;100.00
69306;BME280;56427;51.580;4.656;2023-03-14T09:56:13;99712.03;;;6.52;100.00
69306;BME280;56427;51.580;4.656;2023-03-14T09:58:41;99711.91;;;6.53;100.00
69306;BME280;56427;51.580;4.656;2023-03-14T10:01:11;99723.19;;;6.62;100.00
69306;BME280;56427;51.580;4.656;2023-03-14T10:03:39;99730.84;;;6.73;100.00
69306;BME280;56427;51.580;4.656;2023-03-14T10:06:11;99729.59;;;7.08;100.00
69306;BME280;56427;51.580;4.656;2023-03-14T10:08:41;99741.03;;;7.15;100.00
69306;BME280;56427;51.580;4.656;2023-03-14T10:11:14;99749.44;;;7.17;100.00
69306;BME280;56427;51.580;4.656;2023-03-14T10:13:49;99750.88;;;7.80;100.00
69306;BME280;56427;51.580;4.656;2023-03-14T10:16:15;99759.84;;;7.96;100.00
69306;BME280;56427;51.580;4.656;2023-03-14T10:18:44;99766.09;;;7.93;100.00
69306;BME280;56427;51.580;4.656;2023-03-14T10:21:27;99781.19;;;7.68;100.00
69306;BME280;56427;51.580;4.656;2023-03-14T10:23:53;99783.34;;;7.44;100.00
69306;BME280;56427;51.580;4.656;2023-03-14T10:26:24;99786.34;;;7.59;100.00
69306;BME280;56427;51.580;4.656;2023-03-14T10:28:53;99796.28;;;7.63;100.00
69306;BME280;56427;51.580;4.656;2023-03-14T10:31:24;99812.19;;;7.78;100.00
69306;BME280;56427;51.580;4.656;2023-03-14T10:33:59;99821.41;;;7.71;100.00
69306;BME280;56427;51.580;4.656;2023-03-14T10:36:28;99832.88;;;7.98;100.00
69306;BME280;56427;51.580;4.656;2023-03-14T10:41:53;99871.56;;;6.97;100.00
69306;BME280;56427;51.580;4.656;2023-03-14T10:44:21;99894.47;;;6.69;100.00
69306;BME280;56427;51.580;4.656;2023-03-14T10:46:56;99915.69;;;6.52;100.00
69306;BME280;56427;51.580;4.656;2023-03-14T10:49:32;99910.84;;;6.58;100.00
69306;BME280;56427;51.580;4.656;2023-03-14T10:54:57;99936.78;;;6.45;100.00
69306;BME280;56427;51.580;4.656;2023-03-14T10:57:23;99947.72;;;6.91;100.00
69306;BME280;56427;51.580;4.656;2023-03-14T10:59:48;99956.50;;;7.10;100.00
69306;BME280;56427;51.580;4.656;2023-03-14T11:03:11;99964.31;;;7.19;100.00
69306;BME280;56427;51.580;4.656;2023-03-14T11:05:40;99968.50;;;7.72;100.00
69306;BME280;56427;51.580;4.656;2023-03-14T11:08:11;99977.00;;;7.53;100.00
69306;BME280;56427;51.580;4.656;2023-03-14T11:10:43;99987.56;;;7.50;100.00
69306;BME280;56427;51.580;4.656;2023-03-14T11:13:15;99990.69;;;7.75;100.00
69306;BME280;56427;51.580;4.656;2023-03-14T11:16:03;99988.34;;;7.20;100.00
69306;BME280;56427;51.580;4.656;2023-03-14T11:18:57;100022.81;;;7.61;100.00
69306;BME280;56427;51.580;4.656;2023-03-14T11:21:40;100021.72;;;7.33;100.00
69306;BME280;56427;51.580;4.656;2023-03-14T11:24:33;100029.06;;;7.16;100.00
69306;BME280;56427;51.580;4.656;2023-03-14T11:32:08;100053.19;;;6.73;100.00
69306;BME280;56427;51.580;4.656;2023-03-14T11:40:23;100066.97;;;7.16;100.00
69306;BME280;56427;51.580;4.656;2023-03-14T11:43:13;100067.94;;;7.04;100.00
69306;BME280;56427;51.580;4.656;2023-03-14T11:45:41;100078.56;;;7.64;100.00
69306;BME280;56427;51.580;4.656;2023-03-14T11:50:42;100072.66;;;8.44;100.00
69306;BME280;56427;51.580;4.656;2023-03-14T11:53:13;100081.94;;;8.47;100.00
69306;BME280;56427;51.580;4.656;2023-03-14T11:55:41;100093.88;;;8.07;100.00
69306;BME280;56427;51.580;4.656;2023-03-14T11:58:28;100097.28;;;8.39;100.00
69306;BME280;56427;51.580;4.656;2023-03-14T12:00:56;100097.50;;;8.76;100.00
69306;BME280;56427;51.580;4.656;2023-03-14T12:06:37;100122.50;;;8.25;100.00
69306;BME280;56427;51.580;4.656;2023-03-14T12:09:06;100126.41;;;9.01;100.00
69306;BME280;56427;51.580;4.656;2023-03-14T12:11:39;100121.22;;;8.91;100.00
69306;BME280;56427;51.580;4.656;2023-03-14T12:14:19;100130.78;;;9.30;100.00
69306;BME280;56427;51.580;4.656;2023-03-14T12:16:46;100134.00;;;8.93;100.00
69306;BME280;56427;51.580;4.656;2023-03-14T12:21:57;100131.31;;;9.14;100.00
69306;BME280;56427;51.580;4.656;2023-03-14T12:24:30;100145.91;;;9.34;100.00
69306;BME280;56427;51.580;4.656;2023-03-14T12:26:59;100152.00;;;9.82;100.00
69306;BME280;56427;51.580;4.656;2023-03-14T12:29:25;100166.06;;;9.60;95.51
69306;BME280;56427;51.580;4.656;2023-03-14T12:34:30;100161.09;;;9.96;92.62
69306;BME280;56427;51.580;4.656;2023-03-14T12:36:58;100172.03;;;9.90;84.58
69306;BME280;56427;51.580;4.656;2023-03-14T12:42:12;100174.69;;;10.18;78.17
69306;BME280;56427;51.580;4.656;2023-03-14T12:44:40;100173.78;;;9.99;71.70
69306;BME280;56427;51.580;4.656;2023-03-14T12:49:45;100191.50;;;10.61;72.68
69306;BME280;56427;51.580;4.656;2023-03-14T12:54:50;100195.69;;;10.72;68.39
69306;BME280;56427;51.580;4.656;2023-03-14T12:57:28;100206.72;;;10.74;68.08
69306;BME280;56427;51.580;4.656;2023-03-14T12:59:59;100213.50;;;9.90;65.82
69306;BME280;56427;51.580;4.656;2023-03-14T13:02:40;100223.06;;;10.56;71.53
69306;BME280;56427;51.580;4.656;2023-03-14T13:10:21;100232.34;;;9.43;73.91
69306;BME280;56427;51.580;4.656;2023-03-14T13:13:03;100249.81;;;9.70;67.14
69306;BME280;56427;51.580;4.656;2023-03-14T13:18:35;100260.97;;;9.61;61.05
69306;BME280;56427;51.580;4.656;2023-03-14T13:21:17;100262.34;;;9.65;64.00
69306;BME280;56427;51.580;4.656;2023-03-14T13:23:59;100284.59;;;9.97;66.32
69306;BME280;56427;51.580;4.656;2023-03-14T13:26:39;100272.97;;;9.52;58.39
69306;BME280;56427;51.580;4.656;2023-03-14T13:29:19;100289.97;;;9.35;58.85
69306;BME280;56427;51.580;4.656;2023-03-14T13:31:47;100281.28;;;9.46;59.64
69306;BME280;56427;51.580;4.656;2023-03-14T13:34:13;100304.13;;;8.91;59.78
69306;BME280;56427;51.580;4.656;2023-03-14T13:36:39;100312.03;;;8.89;64.06
69306;BME280;56427;51.580;4.656;2023-03-14T13:39:09;100317.13;;;9.00;65.77
69306;BME280;56427;51.580;4.656;2023-03-14T13:41:38;100328.53;;;8.67;66.48
69306;BME280;56427;51.580;4.656;2023-03-14T13:44:07;100338.06;;;8.66;71.31
69306;BME280;56427;51.580;4.656;2023-03-14T13:46:35;100345.75;;;8.57;69.36
69306;BME280;56427;51.580;4.656;2023-03-14T13:49:05;100354.91;;;8.82;71.21